Isla Nueva, Argentina
Current Conditions -  °F | °C
As of 5:00 PM on Friday 21 Nov 2014 (Local Time) from SAWH Reporting Station
Scattered Clouds Scattered Clouds  
Wind Chill: 33°   Ceiling: Unl
Heat Index: 45°   Visibility: 6mi
Dew Point: 32°   Wind: 44mph
Humidity: 61%   Direction: 230°SW
Pressure: 29.32"   Gusts: 56mph
Location:  55.25°S, 66.49°W
Report Text: SAWH 212000Z 23038G49KT 9999 SCT04507/M00 Q0993
Loading
Personal Weather Stations






























Interactive Weather Map New forecast layout! Learn more

10-Day Weather Forecast

Advertisements
Track Severe Weather on mobile